Time;durP1;ratioP1;P1;durP2;ratioP2;P2;SDS_P1;SDS_P2;PMS_P1;PMS_P2;Temp;Humidity;BMP_temperature;BMP_pressure;BME280_temperature;BME280_humidity;BME280_pressure;Samples;Min_cycle;Max_cycle;Signal;HPM_P1;HPM_P2
2023/05/19 00:02:04;;;;;;;7.97;3.63;;;;;;;13.16;86.04;99449.38;5069789;28;20020;-72
2023/05/19 00:04:30;;;;;;;4.47;3.47;;;;;;;13.19;85.77;99457.09;5069435;28;20424;-72
2023/05/19 00:06:58;;;;;;;6.35;3.83;;;;;;;13.15;86.39;99456.13;5068635;28;20036;-72
2023/05/19 00:09:23;;;;;;;10.30;3.53;;;;;;;13.15;86.39;99444.91;5073819;28;20044;-72
2023/05/19 00:11:49;;;;;;;5.60;4.03;;;;;;;13.08;86.50;99442.69;5073903;28;20491;-72
2023/05/19 00:14:15;;;;;;;4.25;3.38;;;;;;;13.18;86.68;99444.22;5073143;28;20066;-72
2023/05/19 00:16:41;;;;;;;7.97;3.60;;;;;;;13.08;85.70;99439.09;5072007;28;20111;-73
2023/05/19 00:19:10;;;;;;;9.05;3.70;;;;;;;13.04;85.78;99439.78;5074382;28;20464;-72
2023/05/19 00:21:39;;;;;;;4.35;3.75;;;;;;;13.03;86.19;99438.16;5072311;28;20380;-72
2023/05/19 00:24:06;;;;;;;5.53;4.47;;;;;;;13.01;86.36;99446.09;5068330;28;20036;-72
2023/05/19 00:26:31;;;;;;;6.63;3.33;;;;;;;13.10;86.48;99446.00;5073606;28;20025;-72
2023/05/19 00:28:57;;;;;;;6.28;3.40;;;;;;;13.08;86.88;99444.69;5072410;28;20036;-72
2023/05/19 00:31:23;;;;;;;6.38;3.90;;;;;;;13.08;86.99;99453.94;5073891;28;20032;-72
2023/05/19 00:33:48;;;;;;;4.47;3.38;;;;;;;13.13;86.57;99450.06;5060483;28;20480;-72
2023/05/19 00:36:13;;;;;;;4.55;3.97;;;;;;;13.11;86.46;99449.59;5053728;28;20484;-73
2023/05/19 00:38:39;;;;;;;4.00;3.60;;;;;;;13.15;86.64;99450.53;5055131;28;20024;-72
2023/05/19 00:41:06;;;;;;;8.07;4.05;;;;;;;13.16;86.37;99444.56;5073904;28;20131;-73
2023/05/19 00:43:35;;;;;;;11.77;3.90;;;;;;;13.05;87.01;99451.84;5071455;28;20539;-72
2023/05/19 00:46:01;;;;;;;7.57;4.07;;;;;;;13.10;86.95;99446.00;5070447;28;20029;-72
2023/05/19 00:48:26;;;;;;;5.43;4.07;;;;;;;13.05;86.94;99449.84;5074088;28;20017;-72
2023/05/19 00:50:54;;;;;;;5.35;3.50;;;;;;;13.12;86.27;99438.03;5071200;28;20502;-72
2023/05/19 00:53:22;;;;;;;5.05;3.97;;;;;;;12.97;86.83;99427.50;5073016;28;20035;-72
2023/05/19 00:55:48;;;;;;;6.05;3.78;;;;;;;12.98;87.00;99432.78;5073560;28;20081;-72
2023/05/19 00:58:14;;;;;;;5.70;4.13;;;;;;;13.06;86.35;99436.63;5072463;28;20028;-72
2023/05/19 01:00:40;;;;;;;6.82;3.55;;;;;;;12.97;87.26;99435.91;5071992;28;20121;-72
2023/05/19 01:03:11;;;;;;;12.23;4.53;;;;;;;12.99;87.22;99444.84;5073738;28;20025;-73
2023/05/19 01:05:41;;;;;;;7.47;4.30;;;;;;;12.94;87.17;99443.06;5073610;28;20058;-72
2023/05/19 01:08:07;;;;;;;6.10;3.60;;;;;;;12.96;86.89;99431.47;5072294;28;20090;-72
2023/05/19 01:10:33;;;;;;;7.68;4.53;;;;;;;13.09;86.24;99435.91;5072087;28;20032;-72
2023/05/19 01:12:59;;;;;;;6.97;3.60;;;;;;;12.98;86.60;99432.78;5071428;28;20315;-73
2023/05/19 01:15:26;;;;;;;5.07;4.00;;;;;;;12.92;86.95;99428.56;5072596;28;20093;-72
2023/05/19 01:18:10;;;;;;;5.63;3.78;;;;;;;13.03;86.21;99421.31;5060383;28;20461;-72
2023/05/19 01:20:49;;;;;;;5.00;4.07;;;;;;;13.04;86.63;99431.38;5051877;28;20036;-73
2023/05/19 01:23:38;;;;;;;5.32;4.00;;;;;;;13.05;86.20;99424.59;5053411;28;20025;-72
2023/05/19 01:26:10;;;;;;;4.50;3.25;;;;;;;13.09;85.96;99424.66;5061612;28;20036;-72
2023/05/19 01:28:38;;;;;;;5.85;3.80;;;;;;;13.09;85.53;99427.47;5052928;28;20029;-72
2023/05/19 01:31:06;;;;;;;10.50;3.97;;;;;;;13.03;85.54;99423.28;5070968;28;20028;-72
2023/05/19 01:33:32;;;;;;;10.10;4.28;;;;;;;12.95;86.58;99419.44;5070266;28;20411;-72
2023/05/19 01:36:02;;;;;;;15.05;4.65;;;;;;;12.97;86.54;99424.69;5052830;28;20021;-72
2023/05/19 01:38:29;;;;;;;4.28;3.88;;;;;;;12.94;86.47;99415.00;5052911;28;20411;-73
2023/05/19 01:40:56;;;;;;;9.77;4.15;;;;;;;12.94;86.68;99423.44;5062481;28;20064;-72
2023/05/19 01:43:24;;;;;;;6.85;4.03;;;;;;;12.87;86.92;99426.00;5072836;28;20023;-72
2023/05/19 01:45:52;;;;;;;9.75;3.95;;;;;;;12.86;86.39;99429.97;5070514;28;20028;-72
2023/05/19 01:48:18;;;;;;;7.38;3.80;;;;;;;13.00;86.28;99429.63;5071337;28;20533;-72
2023/05/19 01:50:44;;;;;;;10.40;4.55;;;;;;;13.02;86.23;99433.69;5052945;28;20025;-72
2023/05/19 01:53:10;;;;;;;5.85;4.15;;;;;;;12.93;86.00;99435.81;5052701;28;20048;-72
2023/05/19 01:55:46;;;;;;;8.43;4.47;;;;;;;12.91;86.63;99443.75;5052462;28;20060;-72
2023/05/19 01:58:33;;;;;;;7.38;4.55;;;;;;;13.01;86.53;99443.28;5062385;28;20055;-72
2023/05/19 02:01:18;;;;;;;11.63;5.07;;;;;;;13.04;86.16;99441.78;5071492;28;20036;-72
2023/05/19 02:04:11;;;;;;;6.82;4.22;;;;;;;12.91;86.37;99436.16;5072525;28;20024;-72
2023/05/19 02:07:02;;;;;;;4.55;3.63;;;;;;;12.88;86.50;99447.28;5071447;28;20027;-72
2023/05/19 02:09:47;;;;;;;10.20;4.95;;;;;;;12.85;86.75;99439.56;5072298;28;20020;-72
2023/05/19 02:12:30;;;;;;;8.30;5.43;;;;;;;12.92;86.61;99437.00;5071172;28;20085;-72
2023/05/19 02:15:15;;;;;;;7.18;4.43;;;;;;;12.94;86.33;99451.50;5069593;28;20025;-72
2023/05/19 02:17:47;;;;;;;8.07;4.50;;;;;;;12.81;86.97;99447.06;5069042;28;20025;-72
2023/05/19 02:20:13;;;;;;;8.23;4.18;;;;;;;12.84;86.77;99449.16;5071342;28;20024;-72
2023/05/19 02:22:39;;;;;;;7.00;4.05;;;;;;;12.99;86.60;99456.88;5055872;28;20025;-72
2023/05/19 02:25:05;;;;;;;7.60;5.03;;;;;;;13.02;86.62;99450.53;5054399;28;20090;-72
2023/05/19 02:27:31;;;;;;;11.55;4.93;;;;;;;13.02;86.89;99458.16;5058591;28;20062;-72
2023/05/19 02:29:57;;;;;;;5.35;4.85;;;;;;;13.02;86.67;99453.34;5070340;28;20064;-72
2023/05/19 02:32:22;;;;;;;5.68;4.47;;;;;;;13.07;86.43;99457.91;5071789;28;20111;-73
2023/05/19 02:34:47;;;;;;;4.95;4.03;;;;;;;13.11;85.97;99453.25;5069526;28;20051;-73
2023/05/19 02:37:14;;;;;;;11.18;4.97;;;;;;;13.13;86.14;99453.69;5070390;28;20028;-72
2023/05/19 02:39:40;;;;;;;5.97;4.68;;;;;;;13.06;86.11;99462.72;5070878;28;20031;-72
2023/05/19 02:42:06;;;;;;;12.15;6.18;;;;;;;13.02;86.80;99460.97;5069206;28;20028;-72
2023/05/19 02:44:32;;;;;;;14.65;4.47;;;;;;;13.04;86.91;99453.84;5071648;28;20072;-72
2023/05/19 02:46:57;;;;;;;9.75;5.80;;;;;;;13.14;86.83;99460.97;5070228;28;20104;-73
2023/05/19 02:49:22;;;;;;;12.60;5.25;;;;;;;13.10;86.97;99462.00;5067111;28;20514;-72
2023/05/19 02:51:48;;;;;;;10.05;5.25;;;;;;;13.17;86.43;99467.88;5071495;28;20381;-72
2023/05/19 02:54:13;;;;;;;13.27;5.07;;;;;;;13.10;86.69;99456.38;5068512;28;20483;-72
2023/05/19 02:56:39;;;;;;;7.90;4.80;;;;;;;13.09;87.16;99457.56;5057996;28;20023;-72
2023/05/19 02:59:05;;;;;;;9.27;5.32;;;;;;;13.05;86.77;99455.47;5071512;28;20092;-73
2023/05/19 03:01:31;;;;;;;10.77;4.57;;;;;;;13.13;86.73;99466.91;5070260;28;20101;-72
2023/05/19 03:03:57;;;;;;;8.25;5.57;;;;;;;12.90;87.55;99462.59;5069242;28;20044;-72
2023/05/19 03:06:23;;;;;;;10.73;4.93;;;;;;;12.88;88.96;99467.75;5071347;28;20017;-72
2023/05/19 03:08:49;;;;;;;6.07;5.30;;;;;;;12.94;88.52;99462.72;5071316;28;20025;-73
2023/05/19 03:11:14;;;;;;;7.70;5.40;;;;;;;12.92;88.22;99465.88;5071421;28;20779;-72
2023/05/19 03:13:40;;;;;;;7.40;4.97;;;;;;;12.92;87.81;99468.69;5069933;28;20071;-73
2023/05/19 03:16:06;;;;;;;5.82;5.22;;;;;;;13.01;87.63;99468.56;5069377;28;20032;-73
2023/05/19 03:18:32;;;;;;;8.68;4.65;;;;;;;12.94;87.81;99464.69;5068570;28;20491;-73
2023/05/19 03:20:58;;;;;;;6.45;4.88;;;;;;;12.92;87.91;99463.06;5071183;28;20024;-73
2023/05/19 03:23:23;;;;;;;8.40;5.47;;;;;;;12.96;87.95;99471.59;5071135;28;20032;-73
2023/05/19 03:25:49;;;;;;;8.18;5.50;;;;;;;12.87;88.33;99473.72;5071151;28;20085;-72
2023/05/19 03:28:16;;;;;;;5.55;4.82;;;;;;;12.91;88.73;99474.63;5069537;28;20036;-72
2023/05/19 03:30:41;;;;;;;7.03;5.32;;;;;;;12.88;89.06;99478.16;5069238;28;20103;-72
2023/05/19 03:33:06;;;;;;;11.32;5.40;;;;;;;12.85;89.27;99476.06;5068224;28;20044;-72
2023/05/19 03:35:32;;;;;;;11.73;5.32;;;;;;;12.78;89.90;99485.84;5064215;28;20480;-72
2023/05/19 03:37:57;;;;;;;9.05;6.03;;;;;;;12.85;89.23;99478.84;5049648;28;20455;-72
2023/05/19 03:40:23;;;;;;;12.55;5.90;;;;;;;12.72;90.60;99486.44;5051037;28;20055;-73
2023/05/19 03:42:48;;;;;;;10.57;5.85;;;;;;;12.64;90.71;99477.81;5051863;28;20043;-72
2023/05/19 03:45:14;;;;;;;11.40;7.00;;;;;;;12.57;92.00;99483.16;5055055;28;20091;-73
2023/05/19 03:47:40;;;;;;;15.35;7.85;;;;;;;12.43;92.45;99480.69;5061280;28;20376;-72
2023/05/19 03:50:05;;;;;;;17.10;8.63;;;;;;;12.52;92.27;99482.56;5073061;28;20032;-72
2023/05/19 03:52:33;;;;;;;20.23;10.05;;;;;;;12.57;92.08;99485.16;5074009;28;20495;-72
2023/05/19 03:54:59;;;;;;;23.98;11.90;;;;;;;12.56;92.28;99489.94;5073551;28;20089;-72
2023/05/19 03:57:24;;;;;;;19.00;10.43;;;;;;;12.64;91.50;99491.00;5074785;28;20457;-72
2023/05/19 03:59:50;;;;;;;22.90;10.95;;;;;;;12.75;91.22;99483.75;5074813;28;20107;-72
2023/05/19 04:02:15;;;;;;;25.25;10.40;;;;;;;12.81;90.66;99491.97;5071550;28;20025;-72
2023/05/19 04:04:41;;;;;;;17.00;9.38;;;;;;;12.91;90.45;99491.47;5070070;28;20091;-73
2023/05/19 04:07:06;;;;;;;21.08;11.98;;;;;;;12.82;90.35;99493.59;5071377;28;20021;-73
2023/05/19 04:09:34;;;;;;;35.70;14.52;;;;;;;12.72;91.40;99489.25;5065083;28;20029;-72
2023/05/19 04:12:01;;;;;;;21.65;13.38;;;;;;;12.70;91.74;99488.78;5074624;28;20056;-73
2023/05/19 04:14:27;;;;;;;27.10;13.32;;;;;;;12.75;91.46;99489.38;5074376;28;20101;-72
2023/05/19 04:16:53;;;;;;;31.65;14.80;;;;;;;12.87;90.69;99496.16;5072146;28;20451;-72
2023/05/19 04:19:18;;;;;;;19.63;10.63;;;;;;;12.88;90.47;99495.00;5073670;28;20052;-72
2023/05/19 04:21:43;;;;;;;15.65;7.43;;;;;;;12.96;90.50;99491.25;5074315;28;20475;-73
2023/05/19 04:24:09;;;;;;;33.35;8.60;;;;;;;13.05;89.23;99491.13;5071941;28;20029;-74
2023/05/19 04:26:37;;;;;;;6.15;5.25;;;;;;;13.04;89.45;99493.16;5073044;28;20498;-74
2023/05/19 04:29:03;;;;;;;18.35;5.93;;;;;;;13.16;89.42;99497.91;5073136;28;20116;-71
2023/05/19 04:31:29;;;;;;;9.00;6.13;;;;;;;13.27;88.74;99489.84;5067439;28;20111;-73
2023/05/19 04:33:54;;;;;;;7.03;5.75;;;;;;;13.38;88.46;99492.16;5074020;28;20067;-71
2023/05/19 04:36:20;;;;;;;6.57;4.82;;;;;;;13.57;87.08;99500.00;5073348;28;20455;-71
2023/05/19 04:38:46;;;;;;;13.13;6.28;;;;;;;13.57;86.68;99500.81;5073993;28;20082;-73
2023/05/19 04:41:12;;;;;;;12.70;6.03;;;;;;;13.49;86.83;99490.53;5068844;28;20032;-81
2023/05/19 04:43:40;;;;;;;13.95;5.85;;;;;;;13.61;87.08;99498.94;5067009;28;20393;-76
2023/05/19 04:46:06;;;;;;;12.57;5.93;;;;;;;13.57;86.18;99492.41;5071570;28;20052;-75
2023/05/19 04:48:32;;;;;;;11.00;5.72;;;;;;;13.61;87.05;99486.88;5068319;28;20499;-75
2023/05/19 04:51:00;;;;;;;6.50;5.43;;;;;;;13.54;87.03;99484.69;5070658;28;20025;-75
2023/05/19 04:53:27;;;;;;;9.75;5.45;;;;;;;13.61;87.24;99484.09;5069106;28;20115;-75
2023/05/19 04:55:52;;;;;;;14.20;5.47;;;;;;;13.73;86.76;99480.41;5068933;28;20029;-73
2023/05/19 04:58:18;;;;;;;12.63;6.15;;;;;;;13.73;86.54;99488.84;5067363;28;20043;-73
2023/05/19 05:00:44;;;;;;;6.65;4.88;;;;;;;13.82;85.36;99497.94;5067740;28;20687;-74
2023/05/19 05:03:11;;;;;;;6.35;5.32;;;;;;;13.94;85.82;99493.44;5068401;28;20036;-75
2023/05/19 05:05:36;;;;;;;9.55;5.68;;;;;;;14.16;84.19;99509.78;5068340;28;20145;-75
2023/05/19 05:08:02;;;;;;;8.98;5.72;;;;;;;14.43;83.32;99501.66;5064044;28;20126;-75
2023/05/19 05:10:27;;;;;;;10.38;5.43;;;;;;;14.57;81.49;99498.41;5065477;28;20063;-73
2023/05/19 05:12:53;;;;;;;10.98;6.80;;;;;;;14.77;81.67;99511.81;5065299;28;20526;-74
2023/05/19 05:15:20;;;;;;;8.10;5.65;;;;;;;14.87;81.46;99514.88;5055753;28;20127;-72
2023/05/19 05:17:45;;;;;;;9.45;6.15;;;;;;;15.06;81.15;99518.97;5067983;28;20448;-74
2023/05/19 05:20:11;;;;;;;7.10;5.15;;;;;;;15.09;80.87;99511.81;5068391;28;20032;-75
2023/05/19 05:22:37;;;;;;;7.60;5.85;;;;;;;15.19;80.25;99528.13;5068692;28;20520;-74
2023/05/19 05:25:04;;;;;;;6.50;5.65;;;;;;;15.25;80.89;99523.88;5055469;28;20089;-74
2023/05/19 05:27:30;;;;;;;11.43;6.20;;;;;;;15.28;79.47;99525.16;5064916;28;20513;-75
2023/05/19 05:29:55;;;;;;;6.55;5.60;;;;;;;15.44;78.31;99527.91;5064705;28;20029;-76
2023/05/19 05:32:21;;;;;;;9.75;6.75;;;;;;;15.55;78.96;99525.34;5068718;28;20028;-74
2023/05/19 05:34:47;;;;;;;10.75;6.53;;;;;;;15.67;79.46;99536.50;5065728;28;20422;-76
2023/05/19 05:37:14;;;;;;;11.75;6.18;;;;;;;15.71;77.05;99536.59;5069036;28;20035;-75
2023/05/19 05:39:39;;;;;;;7.75;6.25;;;;;;;15.86;79.12;99537.72;5062854;28;20107;-74
2023/05/19 05:42:05;;;;;;;10.90;5.80;;;;;;;15.93;76.45;99529.44;5070400;28;20031;-75
2023/05/19 05:44:30;;;;;;;8.95;7.53;;;;;;;16.05;75.99;99545.44;5058438;28;20049;-72
2023/05/19 05:46:56;;;;;;;9.60;5.85;;;;;;;16.07;75.92;99543.03;5068542;28;20059;-69
2023/05/19 05:49:22;;;;;;;10.10;5.75;;;;;;;16.12;75.63;99539.91;5068133;28;20035;-74
2023/05/19 05:51:48;;;;;;;8.82;6.40;;;;;;;16.28;76.19;99547.47;5065745;28;20021;-74
2023/05/19 05:54:16;;;;;;;12.18;6.88;;;;;;;16.41;75.93;99532.03;5067195;28;20036;-71
2023/05/19 05:56:41;;;;;;;9.32;6.65;;;;;;;16.45;75.15;99534.91;5059734;28;20542;-74
2023/05/19 05:59:07;;;;;;;10.77;6.10;;;;;;;16.37;75.01;99545.25;5067236;28;20024;-73
2023/05/19 06:01:35;;;;;;;11.63;6.65;;;;;;;16.62;75.71;99546.94;5056569;28;20499;-73
2023/05/19 06:04:00;;;;;;;13.20;6.47;;;;;;;16.81;73.94;99555.34;5059168;28;20033;-74
2023/05/19 06:06:26;;;;;;;10.68;7.22;;;;;;;16.67;72.82;99553.09;5056926;28;20024;-71
2023/05/19 06:08:51;;;;;;;11.02;6.72;;;;;;;16.81;73.83;99561.00;5060082;28;20128;-72
2023/05/19 06:11:18;;;;;;;14.77;8.55;;;;;;;16.84;72.71;99551.78;5055076;28;20025;-73
2023/05/19 06:13:43;;;;;;;10.48;7.00;;;;;;;16.96;72.70;99553.59;5056636;28;20032;-73
2023/05/19 06:16:09;;;;;;;8.52;7.40;;;;;;;16.96;73.95;99566.94;5052048;28;20025;-74
2023/05/19 06:18:34;;;;;;;13.88;7.72;;;;;;;17.21;73.89;99563.75;5057712;28;20033;-73
2023/05/19 06:21:00;;;;;;;15.80;7.68;;;;;;;17.35;72.41;99565.97;5063582;28;20071;-73
2023/05/19 06:23:27;;;;;;;8.88;7.10;;;;;;;17.46;71.25;99563.34;5069171;28;20505;-76
2023/05/19 06:25:53;;;;;;;9.43;7.20;;;;;;;17.24;71.71;99560.16;5063819;28;20028;-75
2023/05/19 06:28:19;;;;;;;11.07;7.90;;;;;;;17.56;71.55;99561.88;5069909;28;20487;-77
2023/05/19 06:30:44;;;;;;;12.52;8.15;;;;;;;17.64;70.95;99567.25;5067850;28;20036;-74
2023/05/19 06:33:10;;;;;;;11.02;7.38;;;;;;;17.74;72.34;99560.13;5068152;28;20028;-75
2023/05/19 06:35:35;;;;;;;9.13;7.90;;;;;;;18.04;70.00;99573.50;5068348;28;20071;-75
2023/05/19 06:38:01;;;;;;;12.88;8.57;;;;;;;18.21;70.53;99576.94;5049764;28;20032;-76
2023/05/19 06:40:26;;;;;;;12.68;8.27;;;;;;;17.83;70.94;99571.97;5050876;28;20036;-77
2023/05/19 06:42:51;;;;;;;10.18;7.82;;;;;;;18.10;69.55;99579.63;5066348;28;20157;-75
2023/05/19 06:45:20;;;;;;;21.20;8.13;;;;;;;18.13;70.08;99572.41;5066113;28;20044;-75
2023/05/19 06:47:46;;;;;;;11.55;7.68;;;;;;;18.35;69.09;99585.63;5065892;28;20028;-74
2023/05/19 06:50:11;;;;;;;14.52;9.05;;;;;;;18.48;68.09;99579.72;5064762;28;20040;-72
2023/05/19 06:52:37;;;;;;;12.20;8.38;;;;;;;18.55;66.19;99584.63;5067016;28;20028;-71
2023/05/19 06:55:03;;;;;;;11.20;8.93;;;;;;;18.58;67.54;99579.03;5064471;28;20459;-72
2023/05/19 06:57:28;;;;;;;17.10;8.95;;;;;;;18.73;66.78;99590.50;5068587;28;20035;-72
2023/05/19 06:59:54;;;;;;;13.48;10.05;;;;;;;18.45;65.94;99591.78;5067124;28;20032;-72
2023/05/19 07:02:19;;;;;;;11.82;9.20;;;;;;;18.41;66.49;99588.09;5064075;28;20078;-73
2023/05/19 07:04:46;;;;;;;33.97;9.02;;;;;;;18.20;66.71;99583.78;5070024;28;20491;-73
2023/05/19 07:07:11;;;;;;;13.43;8.65;;;;;;;18.39;67.18;99591.31;5066161;28;20021;-73
2023/05/19 07:09:37;;;;;;;13.32;9.35;;;;;;;18.45;67.94;99592.63;5070395;28;20077;-73
2023/05/19 07:12:02;;;;;;;15.07;10.35;;;;;;;18.50;65.38;99586.59;5068543;28;20029;-75
2023/05/19 07:14:28;;;;;;;12.32;9.13;;;;;;;18.69;64.56;99589.63;5066400;28;20417;-74
2023/05/19 07:16:53;;;;;;;17.77;10.95;;;;;;;18.96;66.49;99587.50;5062636;28;20028;-74
2023/05/19 07:19:19;;;;;;;13.60;9.30;;;;;;;18.74;64.44;99589.31;5068616;28;20024;-75
2023/05/19 07:21:45;;;;;;;14.88;10.02;;;;;;;18.78;66.49;99588.13;5069434;28;20418;-74
2023/05/19 07:24:11;;;;;;;10.55;8.50;;;;;;;18.82;65.14;99587.34;5057909;28;20033;-74
2023/05/19 07:26:36;;;;;;;16.02;8.95;;;;;;;18.85;64.27;99592.25;5055405;28;20017;-74
2023/05/19 07:29:05;;;;;;;16.35;10.43;;;;;;;18.78;62.08;99590.97;5059259;28;20030;-74
2023/05/19 07:31:30;;;;;;;15.52;9.60;;;;;;;18.91;64.34;99585.81;5049462;28;20025;-75
2023/05/19 07:33:56;;;;;;;12.65;9.40;;;;;;;18.84;63.99;99584.94;5062687;28;20025;-75
2023/05/19 07:36:22;;;;;;;12.05;9.30;;;;;;;19.08;62.25;99584.41;5058771;28;20032;-75
2023/05/19 07:38:47;;;;;;;12.60;9.88;;;;;;;19.20;62.17;99577.66;5063260;28;20029;-74
2023/05/19 07:41:13;;;;;;;13.23;9.27;;;;;;;19.15;63.44;99583.66;5082589;28;20051;-74
2023/05/19 07:43:38;;;;;;;12.20;9.80;;;;;;;19.39;63.19;99575.75;5069412;28;20048;-74
2023/05/19 07:46:04;;;;;;;16.13;10.77;;;;;;;19.55;59.55;99569.81;5069501;28;20035;-74
2023/05/19 07:48:30;;;;;;;13.07;10.05;;;;;;;19.44;61.70;99585.94;5070098;28;20036;-75
2023/05/19 07:50:55;;;;;;;14.27;8.85;;;;;;;19.53;60.93;99588.41;5068500;28;20025;-75
2023/05/19 07:53:21;;;;;;;17.08;10.30;;;;;;;19.91;61.93;99577.75;5069134;28;20456;-75
2023/05/19 07:55:47;;;;;;;16.00;10.27;;;;;;;20.02;61.41;99583.50;5066564;28;20033;-75
2023/05/19 07:58:14;;;;;;;17.40;9.63;;;;;;;20.08;61.22;99573.38;5065723;28;20032;-73
2023/05/19 08:00:41;;;;;;;17.50;9.43;;;;;;;20.54;60.11;99582.50;5068251;28;20039;-75
2023/05/19 08:03:08;;;;;;;14.32;9.15;;;;;;;20.66;60.01;99572.81;5069065;28;20067;-75
2023/05/19 08:05:34;;;;;;;16.50;9.98;;;;;;;20.99;59.35;99576.53;5064235;28;20048;-75
2023/05/19 08:08:00;;;;;;;14.35;10.05;;;;;;;21.36;59.59;99586.75;5059577;28;20051;-74
2023/05/19 08:10:25;;;;;;;12.63;9.90;;;;;;;20.93;58.29;99592.41;5068742;28;20472;-75
2023/05/19 08:12:50;;;;;;;12.38;8.52;;;;;;;20.83;58.86;99588.31;5070557;28;20026;-73
2023/05/19 08:15:16;;;;;;;11.65;8.57;;;;;;;21.12;59.22;99591.19;5067081;28;20025;-74
2023/05/19 08:17:41;;;;;;;18.17;9.88;;;;;;;21.17;58.10;99590.78;5069359;28;20024;-71
2023/05/19 08:20:08;;;;;;;14.10;9.25;;;;;;;21.21;57.20;99596.47;5068958;28;20025;-78
2023/05/19 08:22:35;;;;;;;20.10;9.43;;;;;;;21.11;55.82;99598.09;5070703;28;20055;-77
2023/05/19 08:25:02;;;;;;;11.52;9.73;;;;;;;21.13;56.81;99607.88;5068007;28;20498;-75
2023/05/19 08:27:31;;;;;;;11.55;9.05;;;;;;;21.31;55.71;99601.38;5066870;28;20507;-74
2023/05/19 08:29:56;;;;;;;14.00;10.43;;;;;;;21.25;54.76;99608.69;5060205;28;20032;-73
2023/05/19 08:32:22;;;;;;;15.43;9.60;;;;;;;21.29;56.77;99607.44;5056736;28;20454;-74
2023/05/19 08:34:48;;;;;;;19.88;10.23;;;;;;;21.61;53.20;99600.16;5073525;28;20071;-75
2023/05/19 08:37:14;;;;;;;13.77;10.05;;;;;;;21.66;51.53;99593.22;5066335;28;20429;-74
2023/05/19 08:39:39;;;;;;;14.85;9.10;;;;;;;22.02;48.78;99596.03;5064549;28;20318;-74
2023/05/19 08:42:06;;;;;;;12.77;8.57;;;;;;;22.32;49.24;99593.91;5070829;28;20040;-74
2023/05/19 08:44:32;;;;;;;14.15;9.38;;;;;;;22.34;47.82;99597.19;5072049;28;20495;-74
2023/05/19 08:47:02;;;;;;;14.18;9.25;;;;;;;22.56;46.48;99595.06;5070539;28;20411;-72
2023/05/19 08:49:31;;;;;;;13.57;8.77;;;;;;;22.90;46.53;99593.66;5073063;28;20032;-74
2023/05/19 08:52:24;;;;;;;16.60;9.02;;;;;;;23.09;44.35;99595.16;5058906;28;20024;-75
2023/05/19 08:54:54;;;;;;;13.10;9.05;;;;;;;23.32;47.75;99585.25;5061514;28;20033;-75
2023/05/19 08:57:22;;;;;;;14.82;10.07;;;;;;;23.32;45.73;99593.78;5065190;28;20072;-75
2023/05/19 08:59:50;;;;;;;12.77;9.32;;;;;;;23.66;44.06;99595.97;5063272;28;20108;-76
2023/05/19 09:02:15;;;;;;;13.75;9.70;;;;;;;22.88;46.56;99590.41;5065346;28;20036;-75
2023/05/19 09:04:44;;;;;;;18.75;11.30;;;;;;;21.88;47.59;99582.66;5063793;28;20082;-75
2023/05/19 09:07:12;;;;;;;11.98;9.50;;;;;;;22.71;49.91;99590.09;5055268;28;20031;-75
2023/05/19 09:09:41;;;;;;;18.80;10.38;;;;;;;23.22;46.93;99581.22;5058266;28;20029;-75
2023/05/19 09:12:07;;;;;;;17.77;9.20;;;;;;;23.64;47.27;99584.16;5068738;28;20586;-73
2023/05/19 09:14:33;;;;;;;16.77;9.23;;;;;;;23.57;44.84;99590.75;5070190;28;20040;-75
2023/05/19 09:17:00;;;;;;;15.52;8.85;;;;;;;23.22;45.38;99586.91;5070049;28;20039;-75
2023/05/19 09:19:28;;;;;;;11.15;8.60;;;;;;;22.94;47.77;99588.75;5073015;28;20040;-73
2023/05/19 09:22:02;;;;;;;12.15;8.90;;;;;;;23.46;46.30;99587.97;5060393;28;20031;-73
2023/05/19 09:24:27;;;;;;;18.65;10.48;;;;;;;23.67;45.22;99581.28;5068239;28;20553;-74
2023/05/19 09:26:55;;;;;;;11.70;8.75;;;;;;;23.19;44.88;99582.06;5068708;28;20028;-77
2023/05/19 09:29:21;;;;;;;10.98;9.05;;;;;;;23.35;44.74;99582.34;5064846;28;20115;-72
2023/05/19 09:31:54;;;;;;;13.93;9.68;;;;;;;24.06;45.78;99576.38;5068170;28;20559;-73
2023/05/19 09:34:23;;;;;;;12.32;9.13;;;;;;;23.47;44.51;99580.22;5058906;28;20415;-75
2023/05/19 09:36:50;;;;;;;11.77;9.40;;;;;;;23.10;45.85;99586.19;5056855;28;20044;-74
2023/05/19 09:39:17;;;;;;;17.02;10.68;;;;;;;23.22;46.40;99582.00;5067982;28;20487;-74
2023/05/19 09:41:44;;;;;;;11.13;9.70;;;;;;;23.49;43.49;99586.31;5067933;28;20471;-73
2023/05/19 09:44:29;;;;;;;16.63;9.73;;;;;;;23.61;42.95;99573.59;5063345;28;20045;-72
2023/05/19 09:46:55;;;;;;;12.13;9.57;;;;;;;23.75;42.90;99572.63;5059355;28;20402;-73
2023/05/19 09:49:22;;;;;;;14.57;9.82;;;;;;;23.11;43.76;99570.69;5060177;28;20020;-74
2023/05/19 09:51:50;;;;;;;13.85;10.90;;;;;;;23.38;45.13;99572.16;5059736;28;20028;-73
2023/05/19 09:54:15;;;;;;;17.88;10.50;;;;;;;23.65;46.48;99572.31;5060985;28;20036;-74
2023/05/19 09:56:41;;;;;;;14.43;10.85;;;;;;;23.88;45.83;99567.19;5068057;28;20025;-74
2023/05/19 09:59:07;;;;;;;13.50;10.25;;;;;;;24.31;45.03;99569.56;5065896;28;20036;-75
2023/05/19 10:01:32;;;;;;;15.80;9.63;;;;;;;24.40;43.89;99571.94;5062298;28;20107;-74
2023/05/19 10:03:58;;;;;;;12.52;9.98;;;;;;;24.61;45.14;99582.25;5061536;28;20032;-74
2023/05/19 10:06:25;;;;;;;24.48;11.00;;;;;;;24.68;41.60;99567.06;5059752;28;20028;-73
2023/05/19 10:08:51;;;;;;;11.60;9.25;;;;;;;24.83;41.09;99575.44;5059423;28;20029;-74
2023/05/19 10:11:17;;;;;;;16.15;10.02;;;;;;;25.20;41.27;99570.78;5065784;28;20120;-74
2023/05/19 10:13:46;;;;;;;11.93;9.85;;;;;;;24.79;41.96;99570.59;5061704;28;20499;-74
2023/05/19 10:16:15;;;;;;;15.98;10.35;;;;;;;24.80;41.49;99571.44;5059571;28;20041;-74
2023/05/19 10:18:41;;;;;;;12.35;9.80;;;;;;;24.63;40.99;99564.69;5063135;28;20024;-74
2023/05/19 10:21:07;;;;;;;20.80;10.52;;;;;;;24.60;42.06;99565.53;5064108;28;20476;-74
2023/05/19 10:23:33;;;;;;;22.50;11.38;;;;;;;24.53;41.53;99558.69;5069099;28;20028;-75
2023/05/19 10:26:03;;;;;;;13.32;9.75;;;;;;;24.69;43.75;99551.50;5070713;28;20099;-74
2023/05/19 10:28:38;;;;;;;14.88;11.13;;;;;;;24.34;43.55;99545.03;5066638;28;20032;-74
2023/05/19 10:31:08;;;;;;;19.90;11.68;;;;;;;24.87;45.50;99550.47;5061945;28;20025;-75
2023/05/19 10:33:55;;;;;;;14.23;11.27;;;;;;;25.03;42.98;99564.09;5058100;28;20032;-75
2023/05/19 10:36:52;;;;;;;16.88;12.35;;;;;;;24.83;42.69;99552.56;5055410;28;20064;-72
2023/05/19 10:39:31;;;;;;;14.88;11.38;;;;;;;24.42;43.63;99558.00;5065769;28;20048;-74
2023/05/19 10:42:12;;;;;;;15.73;10.95;;;;;;;24.76;44.40;99560.00;5064551;28;20115;-74
2023/05/19 10:45:01;;;;;;;13.82;10.52;;;;;;;24.75;42.71;99558.38;5061687;28;20514;-74
2023/05/19 10:47:28;;;;;;;17.70;12.15;;;;;;;24.63;43.53;99556.09;5052792;28;20086;-74
2023/05/19 10:49:54;;;;;;;18.33;11.40;;;;;;;24.37;44.45;99559.28;5066664;28;20487;-74
2023/05/19 10:52:24;;;;;;;14.75;10.18;;;;;;;24.55;43.53;99558.22;5068757;28;20051;-75
2023/05/19 10:54:53;;;;;;;13.82;10.15;;;;;;;24.97;42.63;99552.34;5051361;28;20028;-75
2023/05/19 10:57:24;;;;;;;12.18;10.25;;;;;;;25.00;40.74;99551.50;5053003;28;20016;-75
2023/05/19 10:59:50;;;;;;;15.45;11.30;;;;;;;25.02;42.28;99551.88;5056382;28;20029;-74
2023/05/19 11:02:39;;;;;;;22.13;11.15;;;;;;;25.46;41.95;99542.56;5063600;28;20568;-75
2023/05/19 11:05:13;;;;;;;14.82;9.70;;;;;;;25.14;39.48;99538.22;5063590;28;20039;-75
2023/05/19 11:08:06;;;;;;;16.08;10.25;;;;;;;25.76;38.13;99535.09;5053495;28;20028;-75
2023/05/19 11:10:32;;;;;;;12.63;10.48;;;;;;;25.67;41.56;99540.59;5054130;28;20043;-72
2023/05/19 11:12:58;;;;;;;14.38;10.80;;;;;;;25.88;40.22;99523.00;5055648;28;20059;-70
2023/05/19 11:15:27;;;;;;;18.50;10.93;;;;;;;25.37;38.49;99534.53;5054634;28;20110;-72
2023/05/19 11:17:53;;;;;;;16.58;11.07;;;;;;;25.60;39.45;99521.47;5059680;28;20036;-74
2023/05/19 11:20:28;;;;;;;14.40;10.15;;;;;;;25.68;38.63;99522.16;5060279;28;20107;-73
2023/05/19 11:23:04;;;;;;;17.15;11.23;;;;;;;25.43;41.21;99521.34;5065616;28;20066;-74
2023/05/19 11:25:52;;;;;;;12.60;9.90;;;;;;;25.06;40.99;99518.28;5061391;28;20119;-73
2023/05/19 11:28:20;;;;;;;15.70;11.05;;;;;;;24.95;43.93;99526.22;5054228;28;20067;-75
2023/05/19 11:30:50;;;;;;;17.52;10.60;;;;;;;24.26;45.77;99518.63;5058017;28;20025;-74